Time;durP1;ratioP1;P1;durP2;ratioP2;P2;SDS_P1;SDS_P2;PMS_P1;PMS_P2;Temp;Humidity;BMP_temperature;BMP_pressure;BME280_temperature;BME280_humidity;BME280_pressure;Samples;Min_cycle;Max_cycle;Signal;HPM_P1;HPM_P2
2023/11/10 00:02:08;;;;;;;3.65;1.85;;;10.00;99.90;;;;;;4972756;28;20026;-54
2023/11/10 00:04:35;;;;;;;3.63;1.88;;;9.90;99.90;;;;;;4972629;28;20019;-58
2023/11/10 00:07:00;;;;;;;3.95;1.90;;;10.00;99.90;;;;;;4973385;28;20033;-59
2023/11/10 00:09:26;;;;;;;2.75;1.80;;;10.00;99.90;;;;;;4973492;28;20352;-56
2023/11/10 00:11:52;;;;;;;4.00;2.00;;;10.00;99.90;;;;;;4970732;28;20022;-58
2023/11/10 00:14:17;;;;;;;3.25;2.13;;;9.90;99.90;;;;;;4962003;28;20114;-59
2023/11/10 00:16:44;;;;;;;3.75;2.28;;;10.00;99.90;;;;;;4988942;28;20026;-57
2023/11/10 00:19:09;;;;;;;3.42;2.53;;;9.90;99.90;;;;;;4991728;28;20030;-51
2023/11/10 00:21:36;;;;;;;3.58;2.50;;;9.90;99.90;;;;;;4991445;28;20499;-51
2023/11/10 00:24:05;;;;;;;3.03;2.28;;;9.90;99.90;;;;;;4991736;28;20022;-50
2023/11/10 00:26:34;;;;;;;2.47;2.20;;;9.90;99.90;;;;;;4991960;28;20487;-53
2023/11/10 00:29:00;;;;;;;3.58;2.35;;;9.90;99.90;;;;;;4991753;28;20080;-51
2023/11/10 00:31:26;;;;;;;3.03;2.17;;;9.90;99.90;;;;;;4991377;28;20062;-52
2023/11/10 00:33:51;;;;;;;3.10;2.08;;;9.90;99.90;;;;;;4974209;28;20049;-51
2023/11/10 00:36:17;;;;;;;2.22;2.00;;;9.90;99.90;;;;;;4991347;28;20034;-49
2023/11/10 00:38:44;;;;;;;3.65;2.33;;;9.90;99.90;;;;;;4991467;28;20027;-50
2023/11/10 00:41:09;;;;;;;7.18;2.10;;;9.90;99.90;;;;;;4991093;28;20315;-50
2023/11/10 00:43:35;;;;;;;4.18;2.35;;;9.90;99.90;;;;;;4990351;28;20034;-54
2023/11/10 00:46:01;;;;;;;6.05;2.30;;;9.40;99.90;;;;;;4990998;28;20026;-51
2023/11/10 00:48:26;;;;;;;2.85;2.22;;;9.90;99.90;;;;;;4991252;28;20029;-51
2023/11/10 00:50:52;;;;;;;2.50;2.30;;;9.80;99.90;;;;;;4973536;28;20081;-48
2023/11/10 00:53:19;;;;;;;8.35;2.60;;;9.80;99.90;;;;;;4991197;28;20030;-52
2023/11/10 00:55:44;;;;;;;3.67;2.53;;;9.80;99.90;;;;;;4990828;28;20035;-50
2023/11/10 00:58:10;;;;;;;3.05;1.73;;;9.80;99.90;;;;;;4991172;28;20097;-51
2023/11/10 01:00:35;;;;;;;4.88;3.15;;;9.80;99.90;;;;;;4990994;28;20037;-50
2023/11/10 01:03:03;;;;;;;4.32;3.00;;;9.80;99.90;;;;;;4991130;28;20489;-53
2023/11/10 01:05:28;;;;;;;2.97;1.90;;;9.70;99.90;;;;;;4990920;28;20410;-51
2023/11/10 01:07:54;;;;;;;1.55;1.33;;;9.70;99.90;;;;;;4990904;28;20106;-50
2023/11/10 01:10:19;;;;;;;2.00;1.80;;;9.70;99.90;;;;;;4990969;28;20084;-48
2023/11/10 01:12:46;;;;;;;2.03;1.48;;;9.70;99.90;;;;;;4973382;28;20032;-52
2023/11/10 01:15:12;;;;;;;3.42;1.67;;;9.60;99.90;;;;;;4990605;28;20429;-50
2023/11/10 01:17:39;;;;;;;3.22;1.80;;;9.70;99.90;;;;;;4990543;28;20026;-48
2023/11/10 01:20:10;;;;;;;2.72;1.30;;;9.60;99.90;;;;;;4990740;28;20483;-49
2023/11/10 01:22:36;;;;;;;2.47;1.20;;;9.60;99.90;;;;;;4990855;28;20489;-54
2023/11/10 01:25:03;;;;;;;2.20;1.20;;;9.60;99.90;;;;;;4990094;28;20038;-49
2023/11/10 01:27:29;;;;;;;1.55;1.08;;;9.60;99.90;;;;;;4990691;28;20389;-50
2023/11/10 01:29:55;;;;;;;2.00;1.42;;;9.60;99.90;;;;;;4990614;28;20030;-48
2023/11/10 01:32:20;;;;;;;5.30;1.23;;;9.50;99.90;;;;;;4990393;28;20027;-52
2023/11/10 01:34:46;;;;;;;3.08;1.05;;;9.50;99.90;;;;;;4990346;28;20113;-54
2023/11/10 01:37:11;;;;;;;2.35;1.08;;;9.50;99.90;;;;;;4990587;28;20039;-52
2023/11/10 01:39:37;;;;;;;2.40;1.35;;;9.50;99.90;;;;;;4972926;28;20058;-50
2023/11/10 01:42:04;;;;;;;1.77;0.80;;;9.40;99.90;;;;;;4973010;28;20026;-49
2023/11/10 01:44:30;;;;;;;1.13;1.00;;;9.40;99.90;;;;;;4990248;28;20371;-51
2023/11/10 01:46:58;;;;;;;2.63;0.85;;;9.30;99.90;;;;;;4990141;28;20026;-52
2023/11/10 01:49:24;;;;;;;3.20;0.98;;;9.30;99.90;;;;;;4990189;28;20087;-50
2023/11/10 01:51:53;;;;;;;5.28;1.20;;;9.30;99.90;;;;;;4990139;28;20045;-50
2023/11/10 01:54:23;;;;;;;0.95;0.95;;;9.30;99.90;;;;;;4990158;28;20034;-53
2023/11/10 01:56:51;;;;;;;2.88;1.35;;;9.30;99.90;;;;;;4972892;28;20482;-52
2023/11/10 01:59:17;;;;;;;2.28;0.80;;;9.30;99.90;;;;;;4990081;28;20120;-51
2023/11/10 02:01:45;;;;;;;1.77;1.58;;;9.20;99.90;;;;;;4989794;28;20087;-51
2023/11/10 02:04:12;;;;;;;2.65;0.90;;;9.20;99.90;;;;;;4989934;28;20026;-53
2023/11/10 02:06:42;;;;;;;1.83;1.27;;;9.20;99.90;;;;;;4990057;28;20030;-53
2023/11/10 02:09:09;;;;;;;1.65;0.85;;;9.20;99.90;;;;;;4990092;28;20401;-53
2023/11/10 02:11:38;;;;;;;2.63;1.33;;;9.10;99.90;;;;;;4972497;28;20029;-50
2023/11/10 02:14:05;;;;;;;2.95;1.20;;;9.10;99.90;;;;;;4990498;28;20023;-53
2023/11/10 02:16:32;;;;;;;3.38;1.10;;;9.10;99.90;;;;;;4989848;28;20428;-50
2023/11/10 02:18:58;;;;;;;1.92;1.25;;;9.20;99.90;;;;;;4989716;28;20101;-54
2023/11/10 02:21:24;;;;;;;1.50;0.98;;;9.20;99.90;;;;;;4989730;28;20097;-49
2023/11/10 02:23:53;;;;;;;3.63;1.27;;;9.20;99.90;;;;;;4972479;28;20022;-52
2023/11/10 02:26:19;;;;;;;2.90;1.00;;;9.10;99.90;;;;;;4971712;28;20073;-48
2023/11/10 02:28:44;;;;;;;8.68;1.63;;;9.10;99.90;;;;;;4989850;28;20069;-48
2023/11/10 02:31:10;;;;;;;2.88;1.50;;;9.10;99.90;;;;;;4989662;28;20026;-52
2023/11/10 02:33:35;;;;;;;7.13;0.82;;;9.10;99.90;;;;;;4989616;28;20107;-48
2023/11/10 02:36:01;;;;;;;2.83;1.13;;;9.10;99.90;;;;;;4971898;28;20076;-48
2023/11/10 02:38:27;;;;;;;5.15;1.33;;;9.00;99.90;;;;;;4989928;28;20026;-50
2023/11/10 02:40:53;;;;;;;3.85;0.93;;;9.10;99.90;;;;;;4989366;28;20171;-51
2023/11/10 02:43:18;;;;;;;2.35;1.20;;;9.00;99.90;;;;;;4989450;28;20034;-52
2023/11/10 02:45:44;;;;;;;1.58;1.05;;;9.00;99.90;;;;;;4989385;28;20041;-47
2023/11/10 02:48:10;;;;;;;2.70;1.55;;;9.00;99.90;;;;;;4989274;28;20029;-48
2023/11/10 02:50:36;;;;;;;3.85;1.13;;;9.00;99.90;;;;;;4989178;28;20026;-49
2023/11/10 02:53:02;;;;;;;2.97;0.95;;;9.00;99.90;;;;;;4972013;28;20038;-48
2023/11/10 02:55:27;;;;;;;3.75;1.08;;;9.00;99.90;;;;;;4989383;28;20044;-50
2023/11/10 02:57:53;;;;;;;2.45;1.60;;;8.90;99.90;;;;;;4989184;28;20030;-52
2023/11/10 03:00:19;;;;;;;1.75;0.95;;;8.90;99.90;;;;;;4989015;28;20030;-48
2023/11/10 03:02:44;;;;;;;5.78;0.90;;;8.90;99.90;;;;;;4989184;28;20030;-50
2023/11/10 03:05:10;;;;;;;1.98;1.02;;;8.90;99.90;;;;;;4989072;28;20030;-48
2023/11/10 03:07:36;;;;;;;5.57;1.13;;;8.90;99.90;;;;;;4988227;28;20019;-52
2023/11/10 03:10:02;;;;;;;1.42;0.70;;;8.90;99.90;;;;;;4988788;28;20026;-48
2023/11/10 03:12:31;;;;;;;0.95;0.82;;;8.80;99.90;;;;;;4971790;28;20026;-50
2023/11/10 03:14:57;;;;;;;0.85;0.77;;;8.80;99.90;;;;;;4971560;28;20036;-50
2023/11/10 03:17:22;;;;;;;5.53;1.20;;;8.90;99.90;;;;;;4988908;28;20028;-51
2023/11/10 03:19:48;;;;;;;3.58;0.98;;;8.90;99.90;;;;;;4988759;28;20034;-51
2023/11/10 03:22:15;;;;;;;3.75;2.13;;;8.90;99.90;;;;;;4989040;28;20486;-50
2023/11/10 03:24:40;;;;;;;2.05;1.00;;;8.80;99.90;;;;;;4971337;28;20033;-51
2023/11/10 03:27:06;;;;;;;4.68;1.33;;;8.90;99.90;;;;;;4988891;28;20019;-51
2023/11/10 03:29:31;;;;;;;4.35;1.17;;;8.90;99.90;;;;;;4988971;28;20023;-51
2023/11/10 03:31:58;;;;;;;1.00;0.90;;;8.80;99.90;;;;;;4988751;28;20065;-48
2023/11/10 03:34:24;;;;;;;5.60;1.15;;;8.80;99.90;;;;;;4988667;28;20026;-51
2023/11/10 03:36:50;;;;;;;2.22;0.75;;;8.70;99.90;;;;;;4988895;28;20500;-49
2023/11/10 03:39:16;;;;;;;1.15;1.05;;;8.60;99.90;;;;;;4988711;28;20038;-51
2023/11/10 03:41:42;;;;;;;1.38;1.17;;;8.60;99.90;;;;;;4988549;28;20453;-51
2023/11/10 03:44:07;;;;;;;2.33;0.85;;;8.60;99.90;;;;;;4988243;28;20106;-52
2023/11/10 03:46:33;;;;;;;4.00;1.13;;;8.50;99.90;;;;;;4971265;28;20485;-54
2023/11/10 03:48:59;;;;;;;2.95;1.48;;;8.60;99.90;;;;;;4988647;28;20505;-54
2023/11/10 03:51:25;;;;;;;7.90;1.30;;;8.60;99.90;;;;;;4970945;28;20057;-49
2023/11/10 03:53:50;;;;;;;5.43;1.20;;;8.50;99.90;;;;;;4971112;28;20076;-50
2023/11/10 03:56:16;;;;;;;3.47;1.17;;;8.60;99.90;;;;;;4988409;28;20033;-51
2023/11/10 03:58:42;;;;;;;2.08;1.05;;;8.50;99.90;;;;;;4988687;28;20491;-47
2023/11/10 04:01:11;;;;;;;4.85;0.77;;;8.50;99.90;;;;;;4988203;28;20057;-48
2023/11/10 04:03:37;;;;;;;2.88;1.00;;;8.50;99.90;;;;;;4988347;28;20025;-51
2023/11/10 04:06:03;;;;;;;1.33;0.80;;;8.50;99.90;;;;;;4970963;28;20289;-48
2023/11/10 04:08:29;;;;;;;4.40;0.98;;;8.40;99.90;;;;;;4988544;28;20482;-51
2023/11/10 04:10:54;;;;;;;4.10;1.65;;;8.50;99.90;;;;;;4988347;28;20034;-50
2023/11/10 04:13:20;;;;;;;1.83;0.70;;;8.40;99.90;;;;;;4988116;28;20027;-49
2023/11/10 04:15:45;;;;;;;5.55;0.80;;;8.40;99.90;;;;;;4970783;28;20109;-51
2023/11/10 04:18:12;;;;;;;3.78;1.05;;;8.40;99.90;;;;;;4988911;28;20030;-49
2023/11/10 04:20:39;;;;;;;0.95;0.80;;;8.40;99.90;;;;;;4991431;28;20416;-51
2023/11/10 04:23:04;;;;;;;5.90;1.25;;;8.40;99.90;;;;;;4974260;28;20022;-52
2023/11/10 04:25:30;;;;;;;3.58;1.08;;;8.30;99.90;;;;;;4991263;28;20030;-48
2023/11/10 04:27:56;;;;;;;2.00;0.93;;;8.30;99.90;;;;;;4991521;28;20109;-52
2023/11/10 04:30:23;;;;;;;4.63;1.00;;;8.30;99.90;;;;;;4991190;28;20109;-48
2023/11/10 04:32:49;;;;;;;2.65;0.60;;;8.30;99.90;;;;;;4991504;28;20039;-48
2023/11/10 04:35:14;;;;;;;1.85;0.73;;;8.30;99.90;;;;;;4991562;28;20034;-48
2023/11/10 04:37:40;;;;;;;3.70;0.50;;;8.30;99.90;;;;;;4991507;28;20030;-49
2023/11/10 04:40:09;;;;;;;1.17;0.68;;;8.30;99.90;;;;;;4991158;28;20468;-48
2023/11/10 04:42:35;;;;;;;2.78;0.70;;;8.30;99.90;;;;;;4991383;28;20030;-50
2023/11/10 04:45:01;;;;;;;2.22;0.57;;;8.30;99.90;;;;;;4991198;28;20401;-51
2023/11/10 04:47:27;;;;;;;1.85;0.50;;;8.40;99.90;;;;;;4991128;28;20092;-50
2023/11/10 04:49:52;;;;;;;3.08;0.80;;;8.40;99.90;;;;;;4973769;28;20574;-49
2023/11/10 04:52:18;;;;;;;0.85;0.40;;;8.40;99.90;;;;;;4991220;28;20030;-52
2023/11/10 04:54:46;;;;;;;0.82;0.60;;;8.30;99.90;;;;;;4991341;28;20022;-55
2023/11/10 04:57:12;;;;;;;3.58;0.52;;;8.30;99.90;;;;;;4991332;28;20529;-52
2023/11/10 04:59:39;;;;;;;3.05;0.80;;;8.30;99.90;;;;;;4990905;28;20069;-55
2023/11/10 05:02:09;;;;;;;1.65;0.68;;;8.20;99.90;;;;;;4991494;28;20482;-53
2023/11/10 05:04:40;;;;;;;2.72;0.65;;;8.20;99.90;;;;;;4991553;28;20034;-54
2023/11/10 05:07:09;;;;;;;2.70;0.90;;;8.20;99.90;;;;;;4991457;28;20025;-52
2023/11/10 05:09:34;;;;;;;1.13;0.70;;;8.10;99.90;;;;;;4991463;28;20026;-50
2023/11/10 05:12:00;;;;;;;1.60;0.63;;;8.10;99.90;;;;;;4991093;28;20034;-51
2023/11/10 05:14:25;;;;;;;0.60;0.55;;;8.10;99.90;;;;;;4990879;28;20037;-48
2023/11/10 05:16:51;;;;;;;2.00;0.70;;;8.10;99.90;;;;;;4991332;28;20386;-49
2023/11/10 05:19:17;;;;;;;6.72;1.33;;;8.10;99.90;;;;;;4973281;28;20023;-49
2023/11/10 05:21:42;;;;;;;1.65;0.75;;;8.10;99.90;;;;;;4973335;28;20019;-50
2023/11/10 05:24:10;;;;;;;2.60;1.58;;;8.10;99.90;;;;;;4990260;28;20478;-53
2023/11/10 05:26:36;;;;;;;4.78;1.17;;;8.10;99.90;;;;;;4990277;28;20014;-49
2023/11/10 05:29:02;;;;;;;5.75;1.75;;;8.10;99.90;;;;;;4990657;28;20297;-48
2023/11/10 05:31:27;;;;;;;2.03;0.70;;;8.00;99.90;;;;;;4972158;28;20057;-49
2023/11/10 05:33:55;;;;;;;1.27;0.40;;;8.10;99.90;;;;;;4973155;28;20035;-48
2023/11/10 05:36:21;;;;;;;3.25;0.95;;;8.10;99.90;;;;;;4990517;28;20089;-49
2023/11/10 05:38:46;;;;;;;1.67;0.68;;;8.10;99.90;;;;;;4973621;28;20069;-53
2023/11/10 05:41:12;;;;;;;4.70;0.70;;;8.10;99.90;;;;;;4972847;28;20037;-50
2023/11/10 05:43:38;;;;;;;4.03;0.80;;;8.10;99.90;;;;;;4990373;28;20432;-49
2023/11/10 05:46:05;;;;;;;3.47;1.50;;;8.10;99.90;;;;;;4990243;28;20052;-50
2023/11/10 05:48:30;;;;;;;2.70;0.82;;;8.00;99.90;;;;;;4990502;28;20027;-50
2023/11/10 05:50:56;;;;;;;1.42;0.60;;;8.10;99.90;;;;;;4990105;28;20514;-49
2023/11/10 05:53:22;;;;;;;3.85;0.90;;;8.00;99.90;;;;;;4990365;28;20042;-53
2023/11/10 05:55:47;;;;;;;1.05;0.77;;;8.00;99.90;;;;;;4990083;28;20037;-50
2023/11/10 05:58:13;;;;;;;5.15;0.90;;;7.90;99.90;;;;;;4972858;28;20037;-50
2023/11/10 06:00:38;;;;;;;0.98;0.90;;;7.90;99.90;;;;;;4989852;28;20053;-53
2023/11/10 06:03:05;;;;;;;3.17;0.70;;;7.90;99.90;;;;;;4990095;28;20026;-52
2023/11/10 06:05:31;;;;;;;2.47;0.85;;;7.80;99.90;;;;;;4989832;28;20075;-47
2023/11/10 06:07:58;;;;;;;1.85;0.60;;;7.80;99.90;;;;;;4989878;28;20027;-49
2023/11/10 06:10:23;;;;;;;2.58;0.50;;;7.70;99.90;;;;;;4990015;28;20030;-51
2023/11/10 06:12:50;;;;;;;4.85;1.33;;;7.70;99.90;;;;;;4972870;28;20022;-51
2023/11/10 06:15:16;;;;;;;5.32;0.98;;;7.70;99.90;;;;;;4990893;28;20105;-50
2023/11/10 06:17:43;;;;;;;6.28;1.73;;;7.70;99.90;;;;;;4972818;28;20476;-52
2023/11/10 06:20:10;;;;;;;1.35;0.80;;;7.70;99.90;;;;;;4973016;28;20033;-48
2023/11/10 06:22:37;;;;;;;6.05;0.70;;;7.60;99.90;;;;;;4989986;28;20015;-52
2023/11/10 06:25:04;;;;;;;4.57;1.52;;;7.60;99.90;;;;;;4989781;28;20402;-50
2023/11/10 06:27:30;;;;;;;1.42;0.90;;;7.60;99.90;;;;;;4971984;28;20052;-48
2023/11/10 06:29:56;;;;;;;1.98;1.08;;;7.60;99.90;;;;;;4989343;28;20105;-52
2023/11/10 06:32:21;;;;;;;2.28;0.68;;;7.60;99.90;;;;;;4989501;28;20565;-49
2023/11/10 06:34:48;;;;;;;6.47;0.90;;;7.60;99.90;;;;;;4989325;28;20058;-48
2023/11/10 06:37:15;;;;;;;2.42;0.93;;;7.60;99.90;;;;;;4989375;28;20044;-51
2023/11/10 06:39:41;;;;;;;3.15;0.80;;;7.60;99.90;;;;;;4971639;28;20030;-52
2023/11/10 06:42:07;;;;;;;3.63;0.80;;;7.70;99.90;;;;;;4989202;28;20554;-50
2023/11/10 06:44:33;;;;;;;8.65;1.00;;;7.70;99.90;;;;;;4989204;28;20616;-48
2023/11/10 06:46:59;;;;;;;2.67;1.00;;;7.70;99.90;;;;;;4989212;28;20031;-52
2023/11/10 06:49:25;;;;;;;1.33;0.80;;;7.70;99.90;;;;;;4989397;28;20493;-46
2023/11/10 06:51:51;;;;;;;1.50;0.88;;;7.70;99.90;;;;;;4989236;28;20095;-48
2023/11/10 06:54:17;;;;;;;1.40;0.77;;;7.70;99.90;;;;;;4989051;28;20061;-50
2023/11/10 06:56:43;;;;;;;0.75;0.75;;;7.80;99.90;;;;;;4989269;28;20034;-50
2023/11/10 06:59:08;;;;;;;2.92;1.52;;;7.80;99.90;;;;;;4989198;28;20026;-45
2023/11/10 07:01:35;;;;;;;4.00;1.05;;;7.90;99.90;;;;;;4988499;28;20501;-49
2023/11/10 07:04:01;;;;;;;1.60;1.08;;;7.90;99.90;;;;;;4989053;28;20021;-48
2023/11/10 07:06:26;;;;;;;4.03;1.15;;;7.90;99.90;;;;;;4989097;28;20030;-50
2023/11/10 07:08:52;;;;;;;3.35;0.80;;;8.00;99.90;;;;;;4989315;28;20023;-51
2023/11/10 07:11:20;;;;;;;1.58;0.75;;;8.00;99.90;;;;;;4989077;28;20031;-49
2023/11/10 07:13:46;;;;;;;2.95;0.90;;;8.00;99.90;;;;;;4989124;28;20101;-52
2023/11/10 07:16:20;;;;;;;1.98;1.10;;;8.00;99.90;;;;;;4988886;28;20113;-52
2023/11/10 07:18:46;;;;;;;1.30;0.63;;;8.10;99.90;;;;;;4989145;28;20109;-49
2023/11/10 07:21:13;;;;;;;2.42;0.95;;;8.20;99.90;;;;;;4988763;28;20030;-50
2023/11/10 07:23:39;;;;;;;2.53;0.90;;;8.10;99.90;;;;;;4989072;28;20071;-49
2023/11/10 07:26:04;;;;;;;2.20;0.75;;;8.20;99.90;;;;;;4988446;28;20038;-52
2023/11/10 07:28:30;;;;;;;6.47;0.77;;;8.20;99.90;;;;;;4989002;28;20057;-50
2023/11/10 07:30:56;;;;;;;1.48;0.60;;;8.30;99.90;;;;;;4988836;28;20018;-50
2023/11/10 07:33:22;;;;;;;7.03;0.80;;;8.30;99.90;;;;;;4988810;28;20029;-51
2023/11/10 07:35:47;;;;;;;3.65;0.65;;;8.40;99.90;;;;;;4988324;28;20080;-49
2023/11/10 07:38:13;;;;;;;4.60;1.00;;;8.50;99.90;;;;;;4988779;28;20026;-50
2023/11/10 07:40:40;;;;;;;1.00;0.77;;;8.50;99.90;;;;;;4988277;28;20034;-48
2023/11/10 07:43:05;;;;;;;7.63;0.88;;;8.50;99.90;;;;;;4988651;28;20019;-50
2023/11/10 07:45:33;;;;;;;2.05;0.90;;;8.50;99.90;;;;;;4988585;28;20063;-49
2023/11/10 07:47:59;;;;;;;1.30;0.98;;;8.60;99.90;;;;;;4988853;28;20533;-50
2023/11/10 07:50:24;;;;;;;2.47;0.77;;;8.70;99.90;;;;;;4988599;28;20159;-49
2023/11/10 07:52:50;;;;;;;3.45;0.68;;;8.70;99.90;;;;;;4988757;28;20038;-52
2023/11/10 07:55:16;;;;;;;1.50;0.70;;;8.70;99.90;;;;;;4991643;28;20466;-52
2023/11/10 07:57:42;;;;;;;1.15;0.70;;;8.70;99.90;;;;;;4991795;28;20037;-56
2023/11/10 08:00:11;;;;;;;1.98;0.70;;;8.80;99.90;;;;;;4992269;28;20027;-49
2023/11/10 08:02:36;;;;;;;1.55;1.10;;;8.80;99.90;;;;;;4991785;28;20023;-53
2023/11/10 08:05:02;;;;;;;4.18;1.00;;;8.90;99.90;;;;;;4991579;28;20068;-50
2023/11/10 08:07:28;;;;;;;3.42;0.93;;;9.00;99.90;;;;;;4991754;28;20018;-54
2023/11/10 08:09:55;;;;;;;2.05;0.93;;;9.10;99.90;;;;;;4991391;28;20039;-52
2023/11/10 08:12:21;;;;;;;4.07;0.98;;;9.20;99.90;;;;;;4992093;28;20023;-51
2023/11/10 08:14:47;;;;;;;3.40;0.85;;;9.10;99.90;;;;;;4991743;28;20045;-52
2023/11/10 08:17:12;;;;;;;2.67;0.70;;;9.20;99.90;;;;;;4991788;28;20023;-52
2023/11/10 08:19:38;;;;;;;1.25;0.70;;;9.20;99.90;;;;;;4991294;28;20030;-51
2023/11/10 08:22:06;;;;;;;2.78;0.60;;;9.40;99.90;;;;;;4991635;28;20413;-54
2023/11/10 08:24:31;;;;;;;4.22;1.20;;;9.10;99.90;;;;;;4991146;28;20052;-51
2023/11/10 08:26:57;;;;;;;1.45;0.70;;;9.10;99.90;;;;;;4991760;28;20101;-49
2023/11/10 08:29:23;;;;;;;0.93;0.70;;;9.10;99.90;;;;;;4991789;28;20109;-48
2023/11/10 08:31:50;;;;;;;1.95;0.77;;;9.20;99.90;;;;;;4987379;28;20101;-61
2023/11/10 08:34:16;;;;;;;5.03;1.65;;;9.20;99.90;;;;;;5046117;28;20016;-49
2023/11/10 08:36:42;;;;;;;1.20;0.93;;;9.20;99.90;;;;;;5000294;28;20034;-49
2023/11/10 08:39:08;;;;;;;2.55;0.70;;;9.20;99.90;;;;;;5073755;28;20029;-48
2023/11/10 08:41:33;;;;;;;2.05;0.77;;;9.20;99.90;;;;;;5029277;28;20027;-49
2023/11/10 08:43:59;;;;;;;6.80;1.10;;;9.20;99.90;;;;;;5004346;28;20019;-48
2023/11/10 08:46:25;;;;;;;3.80;1.58;;;9.30;99.90;;;;;;4988136;28;20061;-52
2023/11/10 08:48:51;;;;;;;6.22;2.00;;;9.30;99.90;;;;;;4991303;28;20029;-54
2023/11/10 08:51:17;;;;;;;0.77;0.70;;;9.30;99.90;;;;;;4981244;28;20031;-47
2023/11/10 08:53:43;;;;;;;1.05;0.80;;;9.70;99.90;;;;;;4976472;28;20030;-44
2023/11/10 08:56:09;;;;;;;2.00;1.15;;;10.90;99.90;;;;;;4978084;28;20435;-47
2023/11/10 08:58:34;;;;;;;4.35;1.80;;;12.10;99.90;;;;;;4971408;28;20117;-46
2023/11/10 09:01:00;;;;;;;3.22;0.70;;;12.80;99.90;;;;;;4954184;28;20075;-49
2023/11/10 09:03:26;;;;;;;3.92;0.95;;;13.60;99.90;;;;;;4971937;28;20053;-49
2023/11/10 09:05:52;;;;;;;2.65;1.17;;;13.60;99.90;;;;;;4970321;28;20027;-46
2023/11/10 09:08:17;;;;;;;1.52;0.90;;;13.60;99.90;;;;;;4954278;28;20038;-48
2023/11/10 09:10:43;;;;;;;2.45;0.90;;;14.20;99.90;;;;;;4986459;28;20034;-47
2023/11/10 09:13:09;;;;;;;1.85;0.77;;;14.00;99.90;;;;;;4971725;28;20548;-49
2023/11/10 09:15:36;;;;;;;3.90;0.90;;;13.40;99.90;;;;;;4971499;28;20034;-51
2023/11/10 09:18:02;;;;;;;2.90;0.75;;;12.90;99.90;;;;;;4971634;28;20110;-50
2023/11/10 09:20:28;;;;;;;1.67;0.90;;;12.30;99.90;;;;;;4971501;28;20037;-50
2023/11/10 09:22:53;;;;;;;3.28;0.70;;;11.90;99.90;;;;;;4971516;28;20505;-48
2023/11/10 09:25:20;;;;;;;2.03;1.02;;;11.40;99.90;;;;;;4971052;28;20035;-51
2023/11/10 09:27:46;;;;;;;2.92;0.75;;;11.30;99.90;;;;;;4990586;28;20023;-50
2023/11/10 09:30:13;;;;;;;2.78;0.80;;;11.70;99.90;;;;;;4990572;28;20022;-52
2023/11/10 09:32:38;;;;;;;1.17;0.90;;;11.90;99.90;;;;;;4985700;28;20508;-50
2023/11/10 09:35:06;;;;;;;1.42;0.63;;;11.80;99.90;;;;;;5006125;28;20032;-59
2023/11/10 09:37:32;;;;;;;2.50;1.40;;;11.60;99.90;;;;;;5072663;28;20028;-52
2023/11/10 09:39:58;;;;;;;1.75;1.23;;;11.30;99.90;;;;;;5002166;28;20052;-50
2023/11/10 09:42:24;;;;;;;5.88;1.15;;;11.10;99.90;;;;;;5068382;28;20423;-52
2023/11/10 09:44:55;;;;;;;7.25;1.10;;;11.00;99.90;;;;;;5049662;28;20041;-51
2023/11/10 09:47:25;;;;;;;4.93;0.93;;;10.80;99.90;;;;;;5026474;28;20029;-52
2023/11/10 09:49:52;;;;;;;2.50;1.15;;;10.70;99.90;;;;;;5072697;28;20086;-51
2023/11/10 09:52:19;;;;;;;1.08;0.90;;;10.60;99.90;;;;;;4995912;28;20397;-50
2023/11/10 09:54:48;;;;;;;1.70;0.85;;;10.60;99.90;;;;;;4988238;28;20087;-52
2023/11/10 09:57:14;;;;;;;3.55;0.88;;;10.70;99.90;;;;;;4989239;28;20023;-53
2023/11/10 09:59:41;;;;;;;1.88;0.90;;;10.90;99.90;;;;;;4973250;28;20066;-51
2023/11/10 10:02:11;;;;;;;1.08;0.70;;;11.10;99.90;;;;;;4979190;28;20026;-51
2023/11/10 10:04:46;;;;;;;3.17;1.10;;;11.30;99.90;;;;;;4960163;28;20027;-50
2023/11/10 10:07:12;;;;;;;7.07;1.10;;;11.40;99.90;;;;;;4971150;28;20072;-47
2023/11/10 10:09:42;;;;;;;2.38;1.02;;;11.30;99.90;;;;;;4973057;28;20023;-57
2023/11/10 10:12:08;;;;;;;1.90;1.00;;;11.10;99.90;;;;;;4951839;29;20059;-51
2023/11/10 10:14:34;;;;;;;1.35;0.70;;;11.30;99.90;;;;;;4952022;28;20024;-53
2023/11/10 10:17:00;;;;;;;3.80;1.00;;;11.70;99.90;;;;;;4968862;28;20027;-55
2023/11/10 10:19:28;;;;;;;0.82;0.82;;;12.40;99.90;;;;;;4972001;28;20041;-55
2023/11/10 10:21:54;;;;;;;1.27;0.70;;;12.80;99.90;;;;;;4987626;28;20027;-53
2023/11/10 10:24:20;;;;;;;2.10;0.90;;;12.70;99.90;;;;;;4970047;28;20448;-54
2023/11/10 10:26:47;;;;;;;1.95;0.85;;;12.40;99.90;;;;;;4972159;28;20110;-55
2023/11/10 10:29:13;;;;;;;5.75;0.90;;;12.10;99.90;;;;;;4966661;28;20097;-56
2023/11/10 10:31:38;;;;;;;3.28;0.70;;;11.80;99.90;;;;;;4964871;28;20423;-52
2023/11/10 10:34:06;;;;;;;1.90;0.70;;;11.40;99.90;;;;;;4974983;28;20031;-52
2023/11/10 10:36:31;;;;;;;2.50;0.90;;;11.20;99.90;;;;;;4971003;28;20394;-55
2023/11/10 10:39:00;;;;;;;4.03;0.77;;;11.20;99.90;;;;;;4972410;28;20019;-54
2023/11/10 10:41:28;;;;;;;2.88;1.00;;;11.00;99.90;;;;;;4970935;28;20027;-50
2023/11/10 10:43:54;;;;;;;2.60;1.00;;;11.00;99.90;;;;;;4972335;28;20063;-54
2023/11/10 10:46:19;;;;;;;4.68;0.75;;;10.90;99.90;;;;;;4971022;28;20050;-52
2023/11/10 10:48:49;;;;;;;4.75;0.85;;;10.80;99.90;;;;;;4970488;28;20023;-51
2023/11/10 10:51:16;;;;;;;0.90;0.60;;;10.70;99.90;;;;;;4971664;28;20039;-50
2023/11/10 10:53:44;;;;;;;4.72;0.68;;;10.50;99.90;;;;;;4976195;28;20444;-49
2023/11/10 10:56:12;;;;;;;1.15;0.63;;;10.60;99.90;;;;;;4975635;28;20133;-50
2023/11/10 10:58:38;;;;;;;0.60;0.60;;;10.60;99.90;;;;;;4978666;28;20284;-49
2023/11/10 11:01:07;;;;;;;93.53;57.92;;;10.60;99.90;;;;;;4977849;28;20031;-51
2023/11/10 11:04:01;;;;;;;7.10;5.82;;;11.30;99.90;;;;;;4985238;28;20070;-54
2023/11/10 11:06:42;;;;;;;2.00;1.15;;;10.60;99.90;;;;;;4973789;28;20030;-52
2023/11/10 11:09:30;;;;;;;1.38;0.70;;;10.60;99.90;;;;;;4986852;28;20329;-54
2023/11/10 11:12:01;;;;;;;2.15;0.70;;;10.70;99.90;;;;;;4973273;28;20515;-51
2023/11/10 11:14:54;;;;;;;1.95;0.73;;;10.60;99.90;;;;;;4999093;28;20555;-55
2023/11/10 11:18:04;;;;;;;3.20;1.00;;;10.60;99.90;;;;;;4969722;28;20023;-51
2023/11/10 11:20:30;;;;;;;1.77;0.90;;;10.60;99.90;;;;;;4970044;28;20031;-56
2023/11/10 11:22:56;;;;;;;0.85;0.60;;;10.70;99.90;;;;;;4970376;28;20054;-55
2023/11/10 11:25:21;;;;;;;1.77;0.80;;;10.70;99.90;;;;;;4952047;28;20062;-54
2023/11/10 11:27:58;;;;;;;1.38;0.77;;;10.80;99.90;;;;;;4975859;28;20034;-54
2023/11/10 11:30:36;;;;;;;4.10;1.30;;;10.90;99.90;;;;;;4973177;28;20023;-57
2023/11/10 11:33:05;;;;;;;3.38;1.05;;;10.90;99.90;;;;;;4979316;28;20034;-53
2023/11/10 11:35:46;;;;;;;1.55;0.70;;;10.80;99.90;;;;;;4959202;28;20037;-55
2023/11/10 11:38:26;;;;;;;2.15;0.75;;;10.80;99.90;;;;;;4972643;28;20031;-57
2023/11/10 11:40:53;;;;;;;2.13;1.33;;;10.80;99.90;;;;;;4977087;28;20019;-51
2023/11/10 11:43:23;;;;;;;3.33;1.00;;;10.80;99.90;;;;;;4971905;28;20034;-50
2023/11/10 11:45:49;;;;;;;1.52;0.68;;;10.80;99.90;;;;;;4980819;28;20034;-58
2023/11/10 11:48:15;;;;;;;3.83;0.88;;;10.70;99.90;;;;;;5002816;28;20023;-49
2023/11/10 11:50:41;;;;;;;3.75;1.20;;;10.70;99.90;;;;;;4978637;28;20383;-46
2023/11/10 11:53:07;;;;;;;3.03;0.98;;;10.70;99.90;;;;;;4977360;28;20065;-47
2023/11/10 11:55:34;;;;;;;5.10;0.80;;;10.60;99.90;;;;;;4972592;28;20054;-49
2023/11/10 11:58:01;;;;;;;1.60;0.82;;;10.50;99.90;;;;;;4973157;28;20033;-51
2023/11/10 12:00:26;;;;;;;3.78;2.05;;;10.50;99.90;;;;;;4972392;28;20027;-46
2023/11/10 12:02:57;;;;;;;1.52;0.95;;;10.50;99.90;;;;;;4973111;28;20022;-53
2023/11/10 12:05:23;;;;;;;4.68;0.98;;;10.60;99.90;;;;;;4978040;28;20441;-54
2023/11/10 12:07:48;;;;;;;4.18;1.17;;;10.70;99.90;;;;;;4971506;28;20027;-48
2023/11/10 12:10:15;;;;;;;3.55;0.70;;;10.70;99.90;;;;;;4972159;28;20490;-51
2023/11/10 12:12:40;;;;;;;5.20;0.88;;;10.80;99.90;;;;;;4972997;28;20054;-53
2023/11/10 12:15:08;;;;;;;2.97;1.55;;;10.90;99.90;;;;;;4964202;28;20022;-52
2023/11/10 12:17:35;;;;;;;1.65;1.08;;;10.80;99.90;;;;;;4972135;28;20095;-47
2023/11/10 12:20:01;;;;;;;3.47;1.52;;;10.90;99.90;;;;;;4972507;28;20098;-54
2023/11/10 12:22:26;;;;;;;1.70;0.70;;;10.80;99.90;;;;;;4971775;28;20055;-59
2023/11/10 12:24:58;;;;;;;4.10;1.00;;;10.80;99.90;;;;;;4976733;28;20039;-56
2023/11/10 12:27:24;;;;;;;5.00;0.90;;;10.80;99.90;;;;;;4978457;28;20064;-49
2023/11/10 12:29:50;;;;;;;3.42;1.17;;;10.80;99.90;;;;;;4971952;28;20022;-47
2023/11/10 12:32:15;;;;;;;1.35;0.68;;;10.90;99.90;;;;;;4972022;28;20402;-58
2023/11/10 12:34:43;;;;;;;9.93;1.55;;;10.80;99.90;;;;;;4971953;28;20034;-58
2023/11/10 12:37:12;;;;;;;3.83;0.93;;;10.80;99.90;;;;;;4977294;28;20431;-58
2023/11/10 12:39:38;;;;;;;1.55;0.90;;;10.90;99.90;;;;;;4972376;28;20106;-53
2023/11/10 12:42:05;;;;;;;4.15;1.48;;;10.80;99.90;;;;;;4973343;28;20106;-51
2023/11/10 12:44:32;;;;;;;7.05;1.17;;;10.70;99.90;;;;;;4976665;28;20030;-57
2023/11/10 12:47:00;;;;;;;5.65;1.05;;;10.70;99.90;;;;;;4987006;28;20034;-57
2023/11/10 12:49:27;;;;;;;0.90;0.77;;;10.70;99.90;;;;;;4984232;28;20035;-55
2023/11/10 12:51:55;;;;;;;3.58;0.90;;;10.70;99.90;;;;;;4971672;28;20027;-57